createdAt,value
2023-04-15T00:01:00.710Z,12.80
2023-04-15T00:03:30.042Z,12.70
2023-04-15T00:05:58.791Z,15.30
2023-04-15T00:08:26.946Z,9.70
2023-04-15T00:10:55.200Z,13.30
2023-04-15T00:13:23.762Z,11.40
2023-04-15T00:15:52.347Z,12.70
2023-04-15T00:18:29.863Z,9.30
2023-04-15T00:20:58.963Z,11.10
2023-04-15T00:23:27.972Z,13.50
2023-04-15T00:25:56.589Z,13.10
2023-04-15T00:28:24.918Z,11.40
2023-04-15T00:30:53.131Z,9.50
2023-04-15T00:33:21.472Z,13.10
2023-04-15T00:35:49.603Z,15.80
2023-04-15T00:38:18.988Z,8.50
2023-04-15T00:40:47.472Z,8.60
2023-04-15T00:43:16.603Z,15.90
2023-04-15T00:45:47.188Z,13.10
2023-04-15T00:48:16.463Z,10.00
2023-04-15T00:50:44.680Z,9.60
2023-04-15T00:53:14.619Z,13.20
2023-04-15T00:55:47.741Z,12.10
2023-04-15T00:58:17.397Z,10.00
2023-04-15T01:00:46.563Z,10.80
2023-04-15T01:03:15.707Z,10.70
2023-04-15T01:05:44.113Z,15.20
2023-04-15T01:08:12.517Z,14.30
2023-04-15T01:10:40.884Z,14.20
2023-04-15T01:13:09.272Z,13.10
2023-04-15T01:15:37.886Z,13.60
2023-04-15T01:18:07.618Z,12.80
2023-04-15T01:20:36.521Z,14.70
2023-04-15T01:23:04.764Z,10.20
2023-04-15T01:25:34.933Z,12.30
2023-04-15T01:28:03.505Z,14.70
2023-04-15T01:30:36.162Z,17.60
2023-04-15T01:33:04.424Z,13.70
2023-04-15T01:35:33.069Z,14.10
2023-04-15T01:38:11.510Z,11.40
2023-04-15T01:40:41.019Z,13.60
2023-04-15T01:43:09.440Z,9.10
2023-04-15T01:45:37.665Z,12.00
2023-04-15T01:48:06.260Z,14.60
2023-04-15T01:50:36.922Z,17.10
2023-04-15T01:53:05.232Z,16.80
2023-04-15T01:55:33.307Z,15.80
2023-04-15T01:58:01.582Z,18.30
2023-04-15T02:00:30.908Z,14.80
2023-04-15T02:02:59.858Z,10.70
2023-04-15T02:05:28.944Z,14.70
2023-04-15T02:07:58.233Z,15.90
2023-04-15T02:10:26.540Z,16.00
2023-04-15T02:12:54.655Z,17.30
2023-04-15T02:15:23.410Z,18.00
2023-04-15T02:17:52.850Z,13.50
2023-04-15T02:20:27.503Z,14.40
2023-04-15T02:22:56.985Z,12.40
2023-04-15T02:25:25.423Z,14.60
2023-04-15T02:27:53.730Z,13.60
2023-04-15T02:30:24.033Z,16.90
2023-04-15T02:32:52.146Z,13.90
2023-04-15T02:35:20.307Z,15.80
2023-04-15T02:37:48.442Z,17.70
2023-04-15T02:40:17.268Z,12.00
2023-04-15T02:42:47.048Z,24.20
2023-04-15T02:45:19.575Z,28.50
2023-04-15T02:47:47.799Z,21.60
2023-04-15T02:50:23.767Z,22.80
2023-04-15T02:52:52.411Z,13.80
2023-04-15T02:55:21.234Z,17.00
2023-04-15T02:57:50.012Z,13.90
2023-04-15T03:00:25.762Z,16.70
2023-04-15T03:02:59.332Z,13.10
2023-04-15T03:05:28.768Z,8.60
2023-04-15T03:07:58.099Z,12.90
2023-04-15T03:10:26.256Z,8.40
2023-04-15T03:12:54.574Z,9.00
2023-04-15T03:15:23.182Z,10.50
2023-04-15T03:17:59.437Z,13.80
2023-04-15T03:20:27.738Z,10.60
2023-04-15T03:22:55.930Z,9.60
2023-04-15T03:25:24.786Z,12.80
2023-04-15T03:27:53.091Z,11.60
2023-04-15T03:30:21.601Z,14.70
2023-04-15T03:32:50.154Z,14.20
2023-04-15T03:35:18.421Z,13.40
2023-04-15T03:37:46.634Z,13.90
2023-04-15T03:40:15.137Z,13.90
2023-04-15T03:42:43.404Z,10.70
2023-04-15T03:45:11.952Z,11.30
2023-04-15T03:47:40.202Z,14.50
2023-04-15T03:50:09.098Z,17.10
2023-04-15T03:52:37.288Z,10.80
2023-04-15T03:55:05.802Z,16.50
2023-04-15T03:57:38.151Z,10.70
2023-04-15T04:00:07.440Z,12.80
2023-04-15T04:02:42.854Z,12.50
2023-04-15T04:05:11.362Z,19.10
2023-04-15T04:07:39.549Z,16.20
2023-04-15T04:10:08.528Z,16.70
2023-04-15T04:12:36.726Z,11.70
2023-04-15T04:15:05.733Z,9.60
2023-04-15T04:17:34.082Z,28.20
2023-04-15T04:20:02.314Z,29.20
2023-04-15T04:22:30.746Z,22.00
2023-04-15T04:25:00.162Z,28.80
2023-04-15T04:27:34.360Z,20.70
2023-04-15T04:30:02.604Z,14.80
2023-04-15T04:32:30.892Z,15.50
2023-04-15T04:34:59.307Z,13.30
2023-04-15T04:37:27.390Z,14.50
2023-04-15T04:39:55.608Z,15.60
2023-04-15T04:42:23.817Z,17.00
2023-04-15T04:44:52.027Z,11.30
2023-04-15T04:47:20.830Z,15.90
2023-04-15T04:49:49.035Z,11.40
2023-04-15T04:52:17.324Z,17.40
2023-04-15T04:54:45.588Z,18.20
2023-04-15T04:57:13.932Z,13.30
2023-04-15T04:59:42.108Z,13.60
2023-04-15T05:02:10.307Z,9.30
2023-04-15T05:04:38.640Z,13.40
2023-04-15T05:07:07.101Z,15.70
2023-04-15T05:09:36.909Z,14.40
2023-04-15T05:12:05.588Z,19.40
2023-04-15T05:14:33.902Z,26.40
2023-04-15T05:17:02.009Z,29.30
2023-04-15T05:19:30.575Z,23.80
2023-04-15T05:21:58.945Z,23.90
2023-04-15T05:24:27.388Z,14.30
2023-04-15T05:26:56.305Z,18.50
2023-04-15T05:29:24.588Z,21.90
2023-04-15T05:31:52.901Z,19.90
2023-04-15T05:34:21.032Z,16.80
2023-04-15T05:36:49.148Z,20.40
2023-04-15T05:39:17.372Z,13.30
2023-04-15T05:41:45.832Z,14.70
2023-04-15T05:44:13.995Z,16.60
2023-04-15T05:46:42.541Z,13.50
2023-04-15T05:49:10.806Z,12.00
2023-04-15T05:51:39.010Z,10.50
2023-04-15T05:54:07.365Z,15.90
2023-04-15T05:56:35.558Z,14.40
2023-04-15T05:59:04.025Z,15.00
2023-04-15T06:01:33.671Z,11.70
2023-04-15T06:04:02.018Z,13.10
2023-04-15T06:06:30.989Z,11.00
2023-04-15T06:08:59.905Z,11.20
2023-04-15T06:11:28.462Z,9.80
2023-04-15T06:13:56.730Z,12.00
2023-04-15T06:16:24.986Z,13.50
2023-04-15T06:18:53.187Z,12.40
2023-04-15T06:21:21.517Z,11.10
2023-04-15T06:23:49.710Z,17.40
2023-04-15T06:26:17.912Z,17.00
2023-04-15T06:28:45.999Z,10.10
2023-04-15T06:31:14.820Z,11.60
2023-04-15T06:33:43.068Z,15.10
2023-04-15T06:36:11.207Z,14.90
2023-04-15T06:38:39.369Z,14.70
2023-04-15T06:41:08.017Z,10.50
2023-04-15T06:43:36.445Z,16.40
2023-04-15T06:46:04.777Z,9.70
2023-04-15T06:48:33.176Z,18.70
2023-04-15T06:51:01.835Z,13.70
2023-04-15T06:53:30.059Z,12.50
2023-04-15T06:55:58.226Z,12.70
2023-04-15T06:58:26.643Z,12.30
2023-04-15T07:00:54.802Z,11.70
2023-04-15T07:03:23.506Z,12.70
2023-04-15T07:05:51.855Z,14.60
2023-04-15T07:08:20.672Z,12.80
2023-04-15T07:10:48.898Z,11.70
2023-04-15T07:13:17.531Z,17.30
2023-04-15T07:15:45.984Z,15.00
2023-04-15T07:18:14.153Z,16.60
2023-04-15T07:20:43.675Z,11.50
2023-04-15T07:23:12.049Z,17.20
2023-04-15T07:25:40.409Z,19.20
2023-04-15T07:28:08.590Z,16.50
2023-04-15T07:30:36.864Z,15.30
2023-04-15T07:33:05.056Z,13.60
2023-04-15T07:35:33.410Z,13.60
2023-04-15T07:38:01.808Z,10.30
2023-04-15T07:40:29.918Z,14.40
2023-04-15T07:42:58.739Z,8.60
2023-04-15T07:45:27.533Z,7.80
2023-04-15T07:48:01.059Z,9.60
2023-04-15T07:50:29.183Z,10.80
2023-04-15T07:52:57.825Z,8.90
2023-04-15T07:55:28.155Z,9.60
2023-04-15T07:57:57.464Z,11.00
2023-04-15T08:00:26.867Z,8.20
2023-04-15T08:02:57.471Z,10.20
2023-04-15T08:05:26.000Z,7.80
2023-04-15T08:07:54.147Z,8.10
2023-04-15T08:10:22.612Z,8.70
2023-04-15T08:12:54.428Z,8.00
2023-04-15T08:15:28.397Z,7.60
2023-04-15T08:18:01.040Z,8.40
2023-04-15T08:20:29.194Z,10.10
2023-04-15T08:22:57.358Z,8.60
2023-04-15T08:25:26.032Z,8.50
2023-04-15T08:27:57.609Z,6.30
2023-04-15T08:30:25.990Z,6.30
2023-04-15T08:32:54.128Z,5.50
2023-04-15T08:35:22.299Z,5.50
2023-04-15T08:37:50.577Z,10.70
2023-04-15T08:40:18.863Z,5.80
2023-04-15T08:42:49.425Z,7.30
2023-04-15T08:45:20.147Z,6.60
2023-04-15T08:47:52.925Z,7.00
2023-04-15T08:50:22.107Z,4.50
2023-04-15T08:52:50.422Z,4.20
2023-04-15T08:55:18.878Z,5.40
2023-04-15T08:57:47.153Z,4.40
2023-04-15T09:00:15.960Z,5.50
2023-04-15T09:02:44.512Z,7.90
2023-04-15T09:05:13.114Z,4.80
2023-04-15T09:07:41.403Z,5.70
2023-04-15T09:10:14.338Z,4.70
2023-04-15T09:12:42.443Z,5.50
2023-04-15T09:15:14.712Z,5.60
2023-04-15T09:17:46.739Z,4.90
2023-04-15T09:20:18.752Z,4.60
2023-04-15T09:22:48.720Z,4.00
2023-04-15T09:25:22.528Z,4.10
2023-04-15T09:27:51.060Z,3.00
2023-04-15T09:30:19.491Z,2.90
2023-04-15T09:32:52.042Z,4.20
2023-04-15T09:35:25.256Z,4.40
2023-04-15T09:37:54.677Z,3.10
2023-04-15T09:40:34.837Z,3.00
2023-04-15T09:43:05.361Z,2.00
2023-04-15T09:45:34.744Z,3.50
2023-04-15T09:48:35.128Z,5.90
2023-04-15T09:51:03.363Z,2.80
2023-04-15T09:53:36.704Z,2.20
2023-04-15T09:56:07.986Z,1.50
2023-04-15T09:58:38.910Z,2.60
2023-04-15T10:01:09.190Z,2.40
2023-04-15T10:03:46.664Z,3.40
2023-04-15T10:06:15.248Z,4.60
2023-04-15T10:08:43.633Z,3.80
2023-04-15T10:11:12.857Z,2.00
2023-04-15T10:13:41.870Z,2.70
2023-04-15T10:16:16.879Z,4.50
